sensor_id;sensor_type;location;lat;lon;timestamp;P1;durP1;ratioP1;P2;durP2;ratioP2
11791;SDS011;5953;52.372;9.918;2023-02-15T00:01:52;18.83;;;13.43;;
11791;SDS011;5953;52.372;9.918;2023-02-15T00:04:20;18.63;;;13.10;;
11791;SDS011;5953;52.372;9.918;2023-02-15T00:06:50;18.57;;;13.07;;
11791;SDS011;5953;52.372;9.918;2023-02-15T00:09:18;17.80;;;12.23;;
11791;SDS011;5953;52.372;9.918;2023-02-15T00:11:45;20.03;;;11.97;;
11791;SDS011;5953;52.372;9.918;2023-02-15T00:14:18;21.13;;;13.67;;
11791;SDS011;5953;52.372;9.918;2023-02-15T00:16:48;22.23;;;13.07;;
11791;SDS011;5953;52.372;9.918;2023-02-15T00:19:19;20.23;;;13.17;;
11791;SDS011;5953;52.372;9.918;2023-02-15T00:21:48;19.70;;;13.30;;
11791;SDS011;5953;52.372;9.918;2023-02-15T00:24:17;17.53;;;12.47;;
11791;SDS011;5953;52.372;9.918;2023-02-15T00:26:46;17.43;;;12.50;;
11791;SDS011;5953;52.372;9.918;2023-02-15T00:29:16;18.97;;;12.33;;
11791;SDS011;5953;52.372;9.918;2023-02-15T00:31:44;17.40;;;12.67;;
11791;SDS011;5953;52.372;9.918;2023-02-15T00:34:13;21.40;;;12.20;;
11791;SDS011;5953;52.372;9.918;2023-02-15T00:36:44;19.40;;;12.37;;
11791;SDS011;5953;52.372;9.918;2023-02-15T00:39:13;17.93;;;12.13;;
11791;SDS011;5953;52.372;9.918;2023-02-15T00:41:41;17.13;;;11.37;;
11791;SDS011;5953;52.372;9.918;2023-02-15T00:44:09;19.00;;;12.43;;
11791;SDS011;5953;52.372;9.918;2023-02-15T00:46:37;16.57;;;11.27;;
11791;SDS011;5953;52.372;9.918;2023-02-15T00:49:05;19.37;;;11.70;;
11791;SDS011;5953;52.372;9.918;2023-02-15T00:51:33;19.00;;;11.50;;
11791;SDS011;5953;52.372;9.918;2023-02-15T00:54:02;16.40;;;11.00;;
11791;SDS011;5953;52.372;9.918;2023-02-15T00:56:30;16.20;;;11.07;;
11791;SDS011;5953;52.372;9.918;2023-02-15T00:58:58;16.90;;;11.07;;
11791;SDS011;5953;52.372;9.918;2023-02-15T01:01:26;15.77;;;11.53;;
11791;SDS011;5953;52.372;9.918;2023-02-15T01:03:54;13.83;;;9.90;;
11791;SDS011;5953;52.372;9.918;2023-02-15T01:06:22;14.97;;;10.17;;
11791;SDS011;5953;52.372;9.918;2023-02-15T01:08:49;14.10;;;10.10;;
11791;SDS011;5953;52.372;9.918;2023-02-15T01:11:21;15.17;;;9.80;;
11791;SDS011;5953;52.372;9.918;2023-02-15T01:13:50;20.23;;;10.40;;
11791;SDS011;5953;52.372;9.918;2023-02-15T01:16:19;15.40;;;10.80;;
11791;SDS011;5953;52.372;9.918;2023-02-15T01:18:47;17.43;;;11.37;;
11791;SDS011;5953;52.372;9.918;2023-02-15T01:21:16;17.37;;;11.10;;
11791;SDS011;5953;52.372;9.918;2023-02-15T01:23:46;14.10;;;10.50;;
11791;SDS011;5953;52.372;9.918;2023-02-15T01:26:14;16.37;;;10.80;;
11791;SDS011;5953;52.372;9.918;2023-02-15T01:28:44;16.50;;;11.00;;
11791;SDS011;5953;52.372;9.918;2023-02-15T01:31:13;14.20;;;10.40;;
11791;SDS011;5953;52.372;9.918;2023-02-15T01:33:43;16.73;;;11.10;;
11791;SDS011;5953;52.372;9.918;2023-02-15T01:36:11;17.20;;;10.80;;
11791;SDS011;5953;52.372;9.918;2023-02-15T01:38:39;16.77;;;10.90;;
11791;SDS011;5953;52.372;9.918;2023-02-15T01:41:08;18.83;;;11.53;;
11791;SDS011;5953;52.372;9.918;2023-02-15T01:43:51;17.57;;;10.83;;
11791;SDS011;5953;52.372;9.918;2023-02-15T01:46:26;18.67;;;10.73;;
11791;SDS011;5953;52.372;9.918;2023-02-15T01:49:00;18.80;;;11.07;;
11791;SDS011;5953;52.372;9.918;2023-02-15T01:51:34;18.33;;;11.27;;
11791;SDS011;5953;52.372;9.918;2023-02-15T01:54:09;16.00;;;10.97;;
11791;SDS011;5953;52.372;9.918;2023-02-15T01:56:42;15.23;;;10.63;;
11791;SDS011;5953;52.372;9.918;2023-02-15T01:59:13;21.27;;;10.97;;
11791;SDS011;5953;52.372;9.918;2023-02-15T02:01:43;15.53;;;11.13;;
11791;SDS011;5953;52.372;9.918;2023-02-15T02:04:13;16.13;;;11.37;;
11791;SDS011;5953;52.372;9.918;2023-02-15T02:06:43;16.53;;;10.37;;
11791;SDS011;5953;52.372;9.918;2023-02-15T02:09:13;19.37;;;12.23;;
11791;SDS011;5953;52.372;9.918;2023-02-15T02:11:41;15.50;;;10.37;;
11791;SDS011;5953;52.372;9.918;2023-02-15T02:14:14;16.40;;;10.50;;
11791;SDS011;5953;52.372;9.918;2023-02-15T02:16:44;18.03;;;11.23;;
11791;SDS011;5953;52.372;9.918;2023-02-15T02:19:39;16.07;;;11.20;;
11791;SDS011;5953;52.372;9.918;2023-02-15T02:22:37;15.20;;;11.03;;
11791;SDS011;5953;52.372;9.918;2023-02-15T02:28:19;17.37;;;11.27;;
11791;SDS011;5953;52.372;9.918;2023-02-15T02:31:10;14.93;;;10.80;;
11791;SDS011;5953;52.372;9.918;2023-02-15T02:34:01;14.57;;;10.50;;
11791;SDS011;5953;52.372;9.918;2023-02-15T02:36:35;17.17;;;10.43;;
11791;SDS011;5953;52.372;9.918;2023-02-15T02:39:16;17.27;;;11.27;;
11791;SDS011;5953;52.372;9.918;2023-02-15T02:41:57;15.10;;;10.50;;
11791;SDS011;5953;52.372;9.918;2023-02-15T02:44:31;15.93;;;9.57;;
11791;SDS011;5953;52.372;9.918;2023-02-15T02:47:09;14.03;;;9.43;;
11791;SDS011;5953;52.372;9.918;2023-02-15T02:49:42;15.60;;;10.20;;
11791;SDS011;5953;52.372;9.918;2023-02-15T02:55:04;13.40;;;9.10;;
11791;SDS011;5953;52.372;9.918;2023-02-15T02:57:34;13.13;;;8.57;;
11791;SDS011;5953;52.372;9.918;2023-02-15T03:00:06;13.43;;;9.50;;
11791;SDS011;5953;52.372;9.918;2023-02-15T03:02:36;14.83;;;9.77;;
11791;SDS011;5953;52.372;9.918;2023-02-15T03:05:11;14.03;;;10.40;;
11791;SDS011;5953;52.372;9.918;2023-02-15T03:07:43;16.23;;;10.37;;
11791;SDS011;5953;52.372;9.918;2023-02-15T03:10:18;14.23;;;9.60;;
11791;SDS011;5953;52.372;9.918;2023-02-15T03:12:49;15.20;;;10.77;;
11791;SDS011;5953;52.372;9.918;2023-02-15T03:15:19;13.87;;;9.93;;
11791;SDS011;5953;52.372;9.918;2023-02-15T03:17:48;14.43;;;10.63;;
11791;SDS011;5953;52.372;9.918;2023-02-15T03:20:22;14.53;;;10.07;;
11791;SDS011;5953;52.372;9.918;2023-02-15T03:22:54;13.53;;;10.10;;
11791;SDS011;5953;52.372;9.918;2023-02-15T03:25:25;16.07;;;10.53;;
11791;SDS011;5953;52.372;9.918;2023-02-15T03:27:58;15.50;;;9.53;;
11791;SDS011;5953;52.372;9.918;2023-02-15T03:30:29;15.07;;;9.43;;
11791;SDS011;5953;52.372;9.918;2023-02-15T03:32:58;15.93;;;9.80;;
11791;SDS011;5953;52.372;9.918;2023-02-15T03:35:30;15.23;;;9.80;;
11791;SDS011;5953;52.372;9.918;2023-02-15T03:38:05;13.90;;;9.70;;
11791;SDS011;5953;52.372;9.918;2023-02-15T03:40:36;16.00;;;10.63;;
11791;SDS011;5953;52.372;9.918;2023-02-15T03:43:23;14.40;;;10.23;;
11791;SDS011;5953;52.372;9.918;2023-02-15T03:45:58;15.77;;;10.40;;
11791;SDS011;5953;52.372;9.918;2023-02-15T03:48:33;13.67;;;10.10;;
11791;SDS011;5953;52.372;9.918;2023-02-15T03:51:07;14.67;;;10.53;;
11791;SDS011;5953;52.372;9.918;2023-02-15T03:53:54;14.33;;;10.37;;
11791;SDS011;5953;52.372;9.918;2023-02-15T03:56:24;13.70;;;9.20;;
11791;SDS011;5953;52.372;9.918;2023-02-15T03:58:52;18.17;;;10.57;;
11791;SDS011;5953;52.372;9.918;2023-02-15T04:01:38;16.13;;;10.40;;
11791;SDS011;5953;52.372;9.918;2023-02-15T04:04:28;13.97;;;10.10;;
11791;SDS011;5953;52.372;9.918;2023-02-15T04:07:02;15.43;;;10.73;;
11791;SDS011;5953;52.372;9.918;2023-02-15T04:09:32;14.73;;;9.27;;
11791;SDS011;5953;52.372;9.918;2023-02-15T04:12:17;17.80;;;10.73;;
11791;SDS011;5953;52.372;9.918;2023-02-15T04:14:45;13.20;;;9.37;;
11791;SDS011;5953;52.372;9.918;2023-02-15T04:17:30;15.33;;;9.40;;
11791;SDS011;5953;52.372;9.918;2023-02-15T04:19:58;13.70;;;10.37;;
11791;SDS011;5953;52.372;9.918;2023-02-15T04:22:45;14.73;;;10.27;;
11791;SDS011;5953;52.372;9.918;2023-02-15T04:25:30;13.30;;;9.47;;
11791;SDS011;5953;52.372;9.918;2023-02-15T04:27:58;12.60;;;9.67;;
11791;SDS011;5953;52.372;9.918;2023-02-15T04:30:26;16.57;;;10.80;;
11791;SDS011;5953;52.372;9.918;2023-02-15T04:32:54;16.00;;;10.80;;
11791;SDS011;5953;52.372;9.918;2023-02-15T04:35:23;13.53;;;9.67;;
11791;SDS011;5953;52.372;9.918;2023-02-15T04:37:53;16.77;;;10.90;;
11791;SDS011;5953;52.372;9.918;2023-02-15T04:40:22;15.27;;;10.27;;
11791;SDS011;5953;52.372;9.918;2023-02-15T04:42:49;12.83;;;9.80;;
11791;SDS011;5953;52.372;9.918;2023-02-15T04:45:17;15.17;;;10.43;;
11791;SDS011;5953;52.372;9.918;2023-02-15T04:47:45;12.73;;;9.13;;
11791;SDS011;5953;52.372;9.918;2023-02-15T04:50:13;17.13;;;10.30;;
11791;SDS011;5953;52.372;9.918;2023-02-15T04:52:41;12.13;;;8.80;;
11791;SDS011;5953;52.372;9.918;2023-02-15T04:55:10;15.30;;;10.43;;
11791;SDS011;5953;52.372;9.918;2023-02-15T04:57:38;13.50;;;9.07;;
11791;SDS011;5953;52.372;9.918;2023-02-15T05:00:06;13.47;;;9.50;;
11791;SDS011;5953;52.372;9.918;2023-02-15T05:02:36;15.43;;;10.17;;
11791;SDS011;5953;52.372;9.918;2023-02-15T05:05:04;15.23;;;10.73;;
11791;SDS011;5953;52.372;9.918;2023-02-15T05:07:32;14.27;;;9.83;;
11791;SDS011;5953;52.372;9.918;2023-02-15T05:10:00;17.40;;;11.20;;
11791;SDS011;5953;52.372;9.918;2023-02-15T05:12:29;16.67;;;10.73;;
11791;SDS011;5953;52.372;9.918;2023-02-15T05:14:57;16.77;;;11.17;;
11791;SDS011;5953;52.372;9.918;2023-02-15T05:17:24;19.40;;;12.70;;
11791;SDS011;5953;52.372;9.918;2023-02-15T05:19:52;17.53;;;12.20;;
11791;SDS011;5953;52.372;9.918;2023-02-15T05:22:20;17.33;;;11.87;;
11791;SDS011;5953;52.372;9.918;2023-02-15T05:24:48;18.50;;;11.83;;
11791;SDS011;5953;52.372;9.918;2023-02-15T05:27:34;17.40;;;10.97;;
11791;SDS011;5953;52.372;9.918;2023-02-15T05:30:19;17.00;;;11.10;;
11791;SDS011;5953;52.372;9.918;2023-02-15T05:32:47;18.03;;;11.47;;
11791;SDS011;5953;52.372;9.918;2023-02-15T05:35:15;15.13;;;10.27;;
11791;SDS011;5953;52.372;9.918;2023-02-15T05:37:45;17.17;;;10.57;;
11791;SDS011;5953;52.372;9.918;2023-02-15T05:40:13;16.73;;;10.43;;
11791;SDS011;5953;52.372;9.918;2023-02-15T05:42:42;14.00;;;9.80;;
11791;SDS011;5953;52.372;9.918;2023-02-15T05:45:10;16.17;;;10.77;;
11791;SDS011;5953;52.372;9.918;2023-02-15T05:47:37;15.27;;;9.90;;
11791;SDS011;5953;52.372;9.918;2023-02-15T05:50:05;18.63;;;11.67;;
11791;SDS011;5953;52.372;9.918;2023-02-15T05:52:34;18.90;;;12.23;;
11791;SDS011;5953;52.372;9.918;2023-02-15T05:55:02;17.93;;;11.00;;
11791;SDS011;5953;52.372;9.918;2023-02-15T05:57:30;17.60;;;11.40;;
11791;SDS011;5953;52.372;9.918;2023-02-15T06:00:00;17.50;;;11.57;;
11791;SDS011;5953;52.372;9.918;2023-02-15T06:02:33;14.20;;;9.93;;
11791;SDS011;5953;52.372;9.918;2023-02-15T06:05:01;17.17;;;10.90;;
11791;SDS011;5953;52.372;9.918;2023-02-15T06:07:29;16.00;;;11.30;;
11791;SDS011;5953;52.372;9.918;2023-02-15T06:09:57;20.47;;;11.73;;
11791;SDS011;5953;52.372;9.918;2023-02-15T06:12:25;18.03;;;11.60;;
11791;SDS011;5953;52.372;9.918;2023-02-15T06:14:53;15.73;;;10.33;;
11791;SDS011;5953;52.372;9.918;2023-02-15T06:17:22;18.53;;;11.97;;
11791;SDS011;5953;52.372;9.918;2023-02-15T06:19:50;15.03;;;10.63;;
11791;SDS011;5953;52.372;9.918;2023-02-15T06:22:18;18.87;;;11.87;;
11791;SDS011;5953;52.372;9.918;2023-02-15T06:24:46;15.57;;;10.90;;
11791;SDS011;5953;52.372;9.918;2023-02-15T06:27:14;15.47;;;10.33;;
11791;SDS011;5953;52.372;9.918;2023-02-15T06:29:42;16.47;;;11.93;;
11791;SDS011;5953;52.372;9.918;2023-02-15T06:32:09;16.67;;;10.63;;
11791;SDS011;5953;52.372;9.918;2023-02-15T06:34:39;16.50;;;11.20;;
11791;SDS011;5953;52.372;9.918;2023-02-15T06:37:07;17.20;;;10.63;;
11791;SDS011;5953;52.372;9.918;2023-02-15T06:39:35;16.67;;;12.00;;
11791;SDS011;5953;52.372;9.918;2023-02-15T06:42:03;16.33;;;11.23;;
11791;SDS011;5953;52.372;9.918;2023-02-15T06:44:31;16.47;;;11.23;;
11791;SDS011;5953;52.372;9.918;2023-02-15T06:46:59;16.67;;;11.63;;
11791;SDS011;5953;52.372;9.918;2023-02-15T06:49:27;16.57;;;10.83;;
11791;SDS011;5953;52.372;9.918;2023-02-15T06:51:56;15.10;;;10.53;;
11791;SDS011;5953;52.372;9.918;2023-02-15T06:54:24;19.30;;;11.73;;
11791;SDS011;5953;52.372;9.918;2023-02-15T06:56:52;14.90;;;11.00;;
11791;SDS011;5953;52.372;9.918;2023-02-15T06:59:20;17.10;;;11.80;;
11791;SDS011;5953;52.372;9.918;2023-02-15T07:01:47;20.27;;;12.93;;
11791;SDS011;5953;52.372;9.918;2023-02-15T07:04:16;17.73;;;12.57;;
11791;SDS011;5953;52.372;9.918;2023-02-15T07:06:44;20.83;;;13.60;;
11791;SDS011;5953;52.372;9.918;2023-02-15T07:09:13;17.10;;;12.07;;
11791;SDS011;5953;52.372;9.918;2023-02-15T07:11:41;18.83;;;12.37;;
11791;SDS011;5953;52.372;9.918;2023-02-15T07:14:26;20.23;;;12.60;;
11791;SDS011;5953;52.372;9.918;2023-02-15T07:16:54;20.77;;;12.53;;
11791;SDS011;5953;52.372;9.918;2023-02-15T07:19:22;17.67;;;12.33;;
11791;SDS011;5953;52.372;9.918;2023-02-15T07:21:50;20.27;;;12.90;;
11791;SDS011;5953;52.372;9.918;2023-02-15T07:24:22;19.20;;;12.10;;
11791;SDS011;5953;52.372;9.918;2023-02-15T07:26:50;16.70;;;11.90;;
11791;SDS011;5953;52.372;9.918;2023-02-15T07:29:18;14.37;;;10.47;;
11791;SDS011;5953;52.372;9.918;2023-02-15T07:31:46;16.37;;;10.60;;
11791;SDS011;5953;52.372;9.918;2023-02-15T07:34:14;15.97;;;10.63;;
11791;SDS011;5953;52.372;9.918;2023-02-15T07:36:45;16.13;;;11.03;;
11791;SDS011;5953;52.372;9.918;2023-02-15T07:39:13;15.30;;;10.63;;
11791;SDS011;5953;52.372;9.918;2023-02-15T07:41:44;19.43;;;11.13;;
11791;SDS011;5953;52.372;9.918;2023-02-15T07:44:13;15.43;;;11.13;;
11791;SDS011;5953;52.372;9.918;2023-02-15T07:46:41;18.33;;;11.00;;
11791;SDS011;5953;52.372;9.918;2023-02-15T07:49:09;13.93;;;9.37;;
11791;SDS011;5953;52.372;9.918;2023-02-15T07:51:37;15.30;;;10.93;;
11791;SDS011;5953;52.372;9.918;2023-02-15T07:54:07;16.17;;;11.53;;
11791;SDS011;5953;52.372;9.918;2023-02-15T07:56:35;14.70;;;10.67;;
11791;SDS011;5953;52.372;9.918;2023-02-15T07:59:04;15.33;;;10.90;;
11791;SDS011;5953;52.372;9.918;2023-02-15T08:01:35;15.00;;;10.83;;
11791;SDS011;5953;52.372;9.918;2023-02-15T08:04:04;14.93;;;10.50;;
11791;SDS011;5953;52.372;9.918;2023-02-15T08:06:34;18.47;;;11.23;;
11791;SDS011;5953;52.372;9.918;2023-02-15T08:09:03;16.97;;;11.30;;
11791;SDS011;5953;52.372;9.918;2023-02-15T08:11:33;15.23;;;10.23;;
11791;SDS011;5953;52.372;9.918;2023-02-15T08:14:08;15.37;;;11.00;;
11791;SDS011;5953;52.372;9.918;2023-02-15T08:16:38;15.57;;;10.90;;
11791;SDS011;5953;52.372;9.918;2023-02-15T08:19:07;15.83;;;10.73;;
11791;SDS011;5953;52.372;9.918;2023-02-15T08:21:36;15.50;;;10.57;;
11791;SDS011;5953;52.372;9.918;2023-02-15T08:24:07;13.13;;;9.83;;
11791;SDS011;5953;52.372;9.918;2023-02-15T08:26:36;16.00;;;10.00;;
11791;SDS011;5953;52.372;9.918;2023-02-15T08:29:08;13.73;;;9.40;;
11791;SDS011;5953;52.372;9.918;2023-02-15T08:31:37;13.80;;;9.77;;
11791;SDS011;5953;52.372;9.918;2023-02-15T08:34:07;14.20;;;10.67;;
11791;SDS011;5953;52.372;9.918;2023-02-15T08:36:36;15.77;;;9.63;;
11791;SDS011;5953;52.372;9.918;2023-02-15T08:39:04;15.50;;;10.27;;
11791;SDS011;5953;52.372;9.918;2023-02-15T08:41:33;13.93;;;10.90;;
11791;SDS011;5953;52.372;9.918;2023-02-15T08:44:03;11.70;;;9.10;;
11791;SDS011;5953;52.372;9.918;2023-02-15T08:46:34;13.40;;;9.37;;
11791;SDS011;5953;52.372;9.918;2023-02-15T08:49:04;13.77;;;9.70;;
11791;SDS011;5953;52.372;9.918;2023-02-15T08:51:32;15.03;;;9.97;;
11791;SDS011;5953;52.372;9.918;2023-02-15T08:54:02;13.53;;;9.53;;
11791;SDS011;5953;52.372;9.918;2023-02-15T08:56:34;12.37;;;9.20;;
11791;SDS011;5953;52.372;9.918;2023-02-15T08:59:03;12.00;;;9.37;;
11791;SDS011;5953;52.372;9.918;2023-02-15T09:01:32;12.07;;;9.27;;
11791;SDS011;5953;52.372;9.918;2023-02-15T09:04:03;14.17;;;8.63;;
11791;SDS011;5953;52.372;9.918;2023-02-15T09:06:32;13.07;;;9.60;;
11791;SDS011;5953;52.372;9.918;2023-02-15T09:09:00;12.33;;;9.17;;
11791;SDS011;5953;52.372;9.918;2023-02-15T09:11:30;13.10;;;9.37;;
11791;SDS011;5953;52.372;9.918;2023-02-15T09:14:01;11.97;;;8.70;;
11791;SDS011;5953;52.372;9.918;2023-02-15T09:16:31;11.23;;;8.40;;
11791;SDS011;5953;52.372;9.918;2023-02-15T09:19:01;12.37;;;9.50;;
11791;SDS011;5953;52.372;9.918;2023-02-15T09:21:31;10.60;;;8.60;;
11791;SDS011;5953;52.372;9.918;2023-02-15T09:24:00;11.53;;;8.93;;
11791;SDS011;5953;52.372;9.918;2023-02-15T09:26:30;11.27;;;9.17;;
11791;SDS011;5953;52.372;9.918;2023-02-15T09:29:00;13.83;;;8.77;;
11791;SDS011;5953;52.372;9.918;2023-02-15T09:31:30;13.47;;;8.70;;
11791;SDS011;5953;52.372;9.918;2023-02-15T09:34:00;11.97;;;9.47;;
11791;SDS011;5953;52.372;9.918;2023-02-15T09:36:30;13.17;;;9.50;;
11791;SDS011;5953;52.372;9.918;2023-02-15T09:39:00;12.03;;;9.07;;
11791;SDS011;5953;52.372;9.918;2023-02-15T09:41:37;11.17;;;8.30;;
11791;SDS011;5953;52.372;9.918;2023-02-15T09:44:28;10.50;;;7.87;;
11791;SDS011;5953;52.372;9.918;2023-02-15T09:47:08;11.40;;;8.83;;
11791;SDS011;5953;52.372;9.918;2023-02-15T09:49:52;12.23;;;8.53;;
11791;SDS011;5953;52.372;9.918;2023-02-15T09:52:35;13.37;;;9.10;;
11791;SDS011;5953;52.372;9.918;2023-02-15T09:55:24;11.47;;;8.43;;
11791;SDS011;5953;52.372;9.918;2023-02-15T09:58:07;10.73;;;8.03;;
11791;SDS011;5953;52.372;9.918;2023-02-15T10:00:45;10.83;;;8.57;;
11791;SDS011;5953;52.372;9.918;2023-02-15T10:03:37;10.10;;;7.87;;
11791;SDS011;5953;52.372;9.918;2023-02-15T10:06:23;11.93;;;8.77;;
11791;SDS011;5953;52.372;9.918;2023-02-15T10:09:07;11.03;;;8.23;;
11791;SDS011;5953;52.372;9.918;2023-02-15T10:11:53;12.83;;;8.40;;
11791;SDS011;5953;52.372;9.918;2023-02-15T10:14:46;11.73;;;8.70;;
11791;SDS011;5953;52.372;9.918;2023-02-15T10:17:40;12.33;;;8.10;;
11791;SDS011;5953;52.372;9.918;2023-02-15T10:20:18;15.30;;;10.10;;
11791;SDS011;5953;52.372;9.918;2023-02-15T10:23:01;11.27;;;8.57;;
11791;SDS011;5953;52.372;9.918;2023-02-15T10:25:41;13.13;;;8.60;;
11791;SDS011;5953;52.372;9.918;2023-02-15T10:28:15;10.20;;;8.07;;
11791;SDS011;5953;52.372;9.918;2023-02-15T10:30:46;14.00;;;10.77;;
11791;SDS011;5953;52.372;9.918;2023-02-15T10:33:21;15.90;;;13.40;;
11791;SDS011;5953;52.372;9.918;2023-02-15T10:36:05;12.53;;;10.10;;
11791;SDS011;5953;52.372;9.918;2023-02-15T10:38:46;10.73;;;8.43;;
11791;SDS011;5953;52.372;9.918;2023-02-15T10:41:24;9.83;;;7.93;;
11791;SDS011;5953;52.372;9.918;2023-02-15T10:44:05;10.00;;;8.33;;
11791;SDS011;5953;52.372;9.918;2023-02-15T10:47:09;10.83;;;7.67;;
11791;SDS011;5953;52.372;9.918;2023-02-15T10:49:59;13.10;;;8.23;;
11791;SDS011;5953;52.372;9.918;2023-02-15T10:52:37;10.17;;;8.20;;
11791;SDS011;5953;52.372;9.918;2023-02-15T10:55:17;11.03;;;7.67;;
11791;SDS011;5953;52.372;9.918;2023-02-15T10:57:54;12.03;;;8.50;;
11791;SDS011;5953;52.372;9.918;2023-02-15T11:00:29;12.13;;;8.33;;
11791;SDS011;5953;52.372;9.918;2023-02-15T11:03:05;16.67;;;8.47;;
11791;SDS011;5953;52.372;9.918;2023-02-15T11:05:47;11.87;;;8.47;;
11791;SDS011;5953;52.372;9.918;2023-02-15T11:08:27;19.87;;;8.67;;
11791;SDS011;5953;52.372;9.918;2023-02-15T11:11:00;16.07;;;10.47;;
11791;SDS011;5953;52.372;9.918;2023-02-15T11:13:35;20.90;;;10.07;;
11791;SDS011;5953;52.372;9.918;2023-02-15T11:16:07;12.23;;;8.10;;
11791;SDS011;5953;52.372;9.918;2023-02-15T11:18:45;12.00;;;8.97;;
11791;SDS011;5953;52.372;9.918;2023-02-15T11:21:20;10.77;;;8.80;;
11791;SDS011;5953;52.372;9.918;2023-02-15T11:23:52;9.40;;;8.23;;
11791;SDS011;5953;52.372;9.918;2023-02-15T11:26:24;11.93;;;8.63;;
11791;SDS011;5953;52.372;9.918;2023-02-15T11:28:59;11.90;;;8.13;;
11791;SDS011;5953;52.372;9.918;2023-02-15T11:31:34;11.80;;;8.07;;
11791;SDS011;5953;52.372;9.918;2023-02-15T11:34:12;12.47;;;8.67;;
11791;SDS011;5953;52.372;9.918;2023-02-15T11:36:46;10.07;;;8.23;;
11791;SDS011;5953;52.372;9.918;2023-02-15T11:39:18;10.37;;;8.67;;
11791;SDS011;5953;52.372;9.918;2023-02-15T11:41:50;11.07;;;8.83;;
11791;SDS011;5953;52.372;9.918;2023-02-15T11:44:21;11.57;;;8.73;;
11791;SDS011;5953;52.372;9.918;2023-02-15T11:46:52;12.20;;;8.53;;
11791;SDS011;5953;52.372;9.918;2023-02-15T11:49:21;11.03;;;8.07;;
11791;SDS011;5953;52.372;9.918;2023-02-15T11:51:51;9.97;;;8.63;;
11791;SDS011;5953;52.372;9.918;2023-02-15T11:54:21;13.23;;;9.77;;
11791;SDS011;5953;52.372;9.918;2023-02-15T11:56:55;12.73;;;9.33;;
11791;SDS011;5953;52.372;9.918;2023-02-15T11:59:27;12.20;;;9.50;;
11791;SDS011;5953;52.372;9.918;2023-02-15T12:01:59;13.33;;;9.63;;
11791;SDS011;5953;52.372;9.918;2023-02-15T12:04:28;12.83;;;9.47;;
11791;SDS011;5953;52.372;9.918;2023-02-15T12:07:01;11.63;;;9.27;;
11791;SDS011;5953;52.372;9.918;2023-02-15T12:09:40;10.30;;;8.97;;
11791;SDS011;5953;52.372;9.918;2023-02-15T12:12:24;13.93;;;9.40;;
11791;SDS011;5953;52.372;9.918;2023-02-15T12:14:54;11.60;;;9.20;;
11791;SDS011;5953;52.372;9.918;2023-02-15T12:17:23;14.13;;;10.87;;
11791;SDS011;5953;52.372;9.918;2023-02-15T12:19:55;12.23;;;9.57;;
11791;SDS011;5953;52.372;9.918;2023-02-15T12:22:25;13.77;;;10.50;;
11791;SDS011;5953;52.372;9.918;2023-02-15T12:24:56;12.03;;;9.57;;
11791;SDS011;5953;52.372;9.918;2023-02-15T12:27:28;13.07;;;10.17;;
11791;SDS011;5953;52.372;9.918;2023-02-15T12:29:58;13.27;;;9.20;;
11791;SDS011;5953;52.372;9.918;2023-02-15T12:32:29;13.50;;;10.53;;
11791;SDS011;5953;52.372;9.918;2023-02-15T12:35:06;16.67;;;11.00;;
11791;SDS011;5953;52.372;9.918;2023-02-15T12:37:38;13.13;;;10.27;;
11791;SDS011;5953;52.372;9.918;2023-02-15T12:40:18;12.13;;;9.43;;
11791;SDS011;5953;52.372;9.918;2023-02-15T12:42:49;13.93;;;9.97;;
11791;SDS011;5953;52.372;9.918;2023-02-15T12:45:21;13.37;;;10.57;;
11791;SDS011;5953;52.372;9.918;2023-02-15T12:48:08;14.77;;;10.90;;
11791;SDS011;5953;52.372;9.918;2023-02-15T12:50:40;12.83;;;10.03;;
11791;SDS011;5953;52.372;9.918;2023-02-15T12:53:13;12.30;;;9.13;;
11791;SDS011;5953;52.372;9.918;2023-02-15T12:55:49;13.90;;;10.63;;
11791;SDS011;5953;52.372;9.918;2023-02-15T12:58:22;12.50;;;9.93;;
11791;SDS011;5953;52.372;9.918;2023-02-15T13:01:02;13.17;;;10.03;;
11791;SDS011;5953;52.372;9.918;2023-02-15T13:03:37;10.97;;;8.97;;
11791;SDS011;5953;52.372;9.918;2023-02-15T13:06:14;12.50;;;9.37;;
11791;SDS011;5953;52.372;9.918;2023-02-15T13:08:45;11.03;;;8.77;;
11791;SDS011;5953;52.372;9.918;2023-02-15T13:11:19;10.53;;;8.33;;
11791;SDS011;5953;52.372;9.918;2023-02-15T13:13:53;12.73;;;9.77;;
11791;SDS011;5953;52.372;9.918;2023-02-15T13:16:25;11.00;;;8.80;;
11791;SDS011;5953;52.372;9.918;2023-02-15T13:18:58;12.13;;;8.80;;
11791;SDS011;5953;52.372;9.918;2023-02-15T13:21:32;13.40;;;9.60;;
11791;SDS011;5953;52.372;9.918;2023-02-15T13:24:05;11.33;;;9.70;;
11791;SDS011;5953;52.372;9.918;2023-02-15T13:26:35;13.60;;;9.97;;
11791;SDS011;5953;52.372;9.918;2023-02-15T13:29:06;12.67;;;10.00;;
11791;SDS011;5953;52.372;9.918;2023-02-15T13:31:39;13.13;;;10.93;;
11791;SDS011;5953;52.372;9.918;2023-02-15T13:34:09;13.73;;;11.13;;
11791;SDS011;5953;52.372;9.918;2023-02-15T13:36:41;12.87;;;10.17;;
11791;SDS011;5953;52.372;9.918;2023-02-15T13:39:20;14.13;;;10.60;;
11791;SDS011;5953;52.372;9.918;2023-02-15T13:41:56;14.43;;;10.17;;
11791;SDS011;5953;52.372;9.918;2023-02-15T13:47:29;14.93;;;9.77;;
11791;SDS011;5953;52.372;9.918;2023-02-15T13:50:10;13.87;;;10.63;;
11791;SDS011;5953;52.372;9.918;2023-02-15T13:52:50;16.33;;;10.93;;
11791;SDS011;5953;52.372;9.918;2023-02-15T13:55:29;15.20;;;10.90;;
11791;SDS011;5953;52.372;9.918;2023-02-15T13:58:12;11.87;;;9.70;;
11791;SDS011;5953;52.372;9.918;2023-02-15T14:00:54;12.03;;;10.53;;
11791;SDS011;5953;52.372;9.918;2023-02-15T14:03:49;13.13;;;10.57;;
11791;SDS011;5953;52.372;9.918;2023-02-15T14:06:32;13.77;;;9.30;;
11791;SDS011;5953;52.372;9.918;2023-02-15T14:09:11;11.80;;;9.90;;
11791;SDS011;5953;52.372;9.918;2023-02-15T14:11:48;11.17;;;9.47;;
11791;SDS011;5953;52.372;9.918;2023-02-15T14:14:40;13.20;;;9.63;;
11791;SDS011;5953;52.372;9.918;2023-02-15T14:17:31;12.03;;;8.87;;
11791;SDS011;5953;52.372;9.918;2023-02-15T14:20:17;11.67;;;9.50;;
11791;SDS011;5953;52.372;9.918;2023-02-15T14:22:50;12.67;;;9.30;;
11791;SDS011;5953;52.372;9.918;2023-02-15T14:25:25;12.97;;;10.10;;
11791;SDS011;5953;52.372;9.918;2023-02-15T14:27:56;13.13;;;10.37;;
11791;SDS011;5953;52.372;9.918;2023-02-15T14:30:32;13.63;;;9.83;;
11791;SDS011;5953;52.372;9.918;2023-02-15T14:33:06;15.27;;;9.57;;
11791;SDS011;5953;52.372;9.918;2023-02-15T14:35:35;11.30;;;9.20;;
11791;SDS011;5953;52.372;9.918;2023-02-15T14:38:06;13.40;;;10.10;;
11791;SDS011;5953;52.372;9.918;2023-02-15T14:40:42;12.60;;;10.40;;
11791;SDS011;5953;52.372;9.918;2023-02-15T14:43:36;16.10;;;10.63;;
11791;SDS011;5953;52.372;9.918;2023-02-15T14:46:15;14.00;;;10.57;;
11791;SDS011;5953;52.372;9.918;2023-02-15T14:48:50;12.47;;;10.03;;
11791;SDS011;5953;52.372;9.918;2023-02-15T14:57:32;14.70;;;9.97;;
11791;SDS011;5953;52.372;9.918;2023-02-15T15:03:09;14.27;;;8.70;;
11791;SDS011;5953;52.372;9.918;2023-02-15T15:05:47;15.03;;;10.20;;
11791;SDS011;5953;52.372;9.918;2023-02-15T15:08:22;10.27;;;8.60;;
11791;SDS011;5953;52.372;9.918;2023-02-15T15:10:55;11.50;;;9.53;;
11791;SDS011;5953;52.372;9.918;2023-02-15T15:13:36;13.70;;;10.37;;
11791;SDS011;5953;52.372;9.918;2023-02-15T15:16:28;12.00;;;9.63;;
11791;SDS011;5953;52.372;9.918;2023-02-15T15:19:12;14.63;;;9.90;;
11791;SDS011;5953;52.372;9.918;2023-02-15T15:22:35;12.00;;;9.53;;
11791;SDS011;5953;52.372;9.918;2023-02-15T15:25:04;13.47;;;10.50;;
11791;SDS011;5953;52.372;9.918;2023-02-15T15:27:48;14.03;;;11.03;;
11791;SDS011;5953;52.372;9.918;2023-02-15T15:33:54;13.50;;;10.03;;
11791;SDS011;5953;52.372;9.918;2023-02-15T15:37:15;14.10;;;10.33;;
11791;SDS011;5953;52.372;9.918;2023-02-15T15:40:21;13.47;;;10.60;;